createdAt,value
2023-09-12T00:02:18.026Z,6.25
2023-09-12T00:04:45.403Z,7.95
2023-09-12T00:07:12.749Z,6.70
2023-09-12T00:09:40.002Z,6.00
2023-09-12T00:12:07.642Z,6.65
2023-09-12T00:14:34.947Z,8.88
2023-09-12T00:17:02.307Z,6.97
2023-09-12T00:19:29.615Z,7.65
2023-09-12T00:21:56.817Z,9.10
2023-09-12T00:24:24.078Z,8.88
2023-09-12T00:26:51.301Z,10.23
2023-09-12T00:29:18.528Z,6.40
2023-09-12T00:31:45.811Z,7.22
2023-09-12T00:34:18.201Z,8.23
2023-09-12T00:36:45.810Z,8.55
2023-09-12T00:39:13.076Z,6.68
2023-09-12T00:41:40.349Z,6.32
2023-09-12T00:44:07.773Z,6.18
2023-09-12T00:46:36.245Z,5.00
2023-09-12T00:49:05.001Z,8.95
2023-09-12T00:51:33.180Z,5.57
2023-09-12T00:54:00.542Z,5.82
2023-09-12T00:56:28.208Z,7.70
2023-09-12T00:58:56.380Z,6.90
2023-09-12T01:01:23.753Z,6.05
2023-09-12T01:03:51.542Z,6.07
2023-09-12T01:06:21.041Z,6.78
2023-09-12T01:08:48.521Z,7.47
2023-09-12T01:11:15.861Z,5.53
2023-09-12T01:13:43.039Z,6.57
2023-09-12T01:16:10.279Z,6.40
2023-09-12T01:18:38.088Z,6.30
2023-09-12T01:21:43.535Z,5.97
2023-09-12T01:24:35.798Z,6.30
2023-09-12T01:27:27.094Z,5.18
2023-09-12T01:29:58.745Z,6.03
2023-09-12T01:32:26.096Z,5.47
2023-09-12T01:34:53.359Z,5.05
2023-09-12T01:37:20.561Z,7.55
2023-09-12T01:39:47.847Z,5.68
2023-09-12T01:42:17.669Z,6.57
2023-09-12T01:44:45.723Z,4.97
2023-09-12T01:47:13.645Z,6.30
2023-09-12T01:49:47.481Z,6.15
2023-09-12T01:52:15.750Z,4.38
2023-09-12T01:54:44.027Z,5.22
2023-09-12T01:57:11.628Z,5.55
2023-09-12T01:59:38.979Z,6.18
2023-09-12T02:02:06.157Z,4.38
2023-09-12T02:04:33.348Z,5.28
2023-09-12T02:07:00.599Z,4.13
2023-09-12T02:09:27.830Z,4.90
2023-09-12T02:11:55.074Z,5.45
2023-09-12T02:14:22.723Z,4.53
2023-09-12T02:16:50.025Z,5.30
2023-09-12T02:19:17.271Z,4.68
2023-09-12T02:21:44.572Z,4.90
2023-09-12T02:24:11.876Z,4.57
2023-09-12T02:26:39.073Z,5.20
2023-09-12T02:29:07.223Z,5.13
2023-09-12T02:31:34.542Z,4.80
2023-09-12T02:34:01.818Z,4.68
2023-09-12T02:36:30.180Z,5.00
2023-09-12T02:38:57.454Z,5.00
2023-09-12T02:41:24.685Z,5.13
2023-09-12T02:43:51.961Z,4.15
2023-09-12T02:46:19.164Z,5.38
2023-09-12T02:48:46.584Z,4.63
2023-09-12T02:51:14.081Z,6.88
2023-09-12T02:53:41.483Z,4.53
2023-09-12T02:56:08.695Z,5.20
2023-09-12T02:58:35.885Z,5.38
2023-09-12T03:01:04.593Z,4.50
2023-09-12T03:06:00.532Z,4.20
2023-09-12T03:08:27.799Z,4.07
2023-09-12T03:10:58.409Z,4.15
2023-09-12T03:13:26.705Z,4.18
2023-09-12T03:15:54.180Z,3.80
2023-09-12T03:18:21.648Z,3.60
2023-09-12T03:20:48.947Z,4.20
2023-09-12T03:23:16.147Z,7.55
2023-09-12T03:25:43.377Z,4.10
2023-09-12T03:28:10.618Z,4.15
2023-09-12T03:30:38.792Z,4.82
2023-09-12T03:33:06.752Z,6.38
2023-09-12T03:35:34.781Z,3.90
2023-09-12T03:38:02.363Z,3.60
2023-09-12T03:40:32.782Z,4.15
2023-09-12T03:43:00.093Z,3.92
2023-09-12T03:45:27.359Z,4.43
2023-09-12T03:47:54.585Z,4.30
2023-09-12T03:50:21.830Z,4.07
2023-09-12T03:52:49.051Z,4.55
2023-09-12T03:55:16.346Z,4.55
2023-09-12T03:57:43.777Z,4.15
2023-09-12T04:00:11.394Z,3.75
2023-09-12T04:02:38.716Z,3.60
2023-09-12T04:05:06.099Z,4.40
2023-09-12T04:07:33.280Z,4.20
2023-09-12T04:10:00.539Z,6.13
2023-09-12T04:12:27.797Z,4.13
2023-09-12T04:14:56.164Z,4.88
2023-09-12T04:17:23.459Z,4.18
2023-09-12T04:19:50.660Z,3.47
2023-09-12T04:22:17.874Z,3.35
2023-09-12T04:24:45.106Z,3.65
2023-09-12T04:27:12.405Z,4.05
2023-09-12T04:29:40.265Z,3.80
2023-09-12T04:32:07.758Z,4.10
2023-09-12T04:34:36.467Z,4.45
2023-09-12T04:37:07.465Z,4.78
2023-09-12T04:39:34.920Z,4.63
2023-09-12T04:42:02.115Z,3.58
2023-09-12T04:44:29.299Z,4.53
2023-09-12T04:46:56.498Z,3.50
2023-09-12T04:49:23.753Z,4.57
2023-09-12T04:51:50.963Z,4.45
2023-09-12T04:54:18.305Z,3.78
2023-09-12T04:56:45.519Z,4.22
2023-09-12T04:59:12.701Z,3.72
2023-09-12T05:01:39.896Z,4.18
2023-09-12T05:04:07.204Z,6.75
2023-09-12T05:06:34.812Z,5.32
2023-09-12T05:09:02.153Z,9.57
2023-09-12T05:11:29.366Z,9.23
2023-09-12T05:13:56.578Z,7.65
2023-09-12T05:16:23.800Z,16.35
2023-09-12T05:18:52.050Z,16.65
2023-09-12T05:21:19.372Z,16.55
2023-09-12T05:23:46.601Z,12.15
2023-09-12T05:26:13.788Z,14.73
2023-09-12T05:28:41.573Z,14.57
2023-09-12T05:31:09.044Z,12.48
2023-09-12T05:33:36.291Z,13.30
2023-09-12T05:36:04.215Z,13.40
2023-09-12T05:38:31.489Z,12.00
2023-09-12T05:40:58.822Z,20.52
2023-09-12T05:43:26.008Z,14.13
2023-09-12T05:45:54.119Z,19.23
2023-09-12T05:48:21.420Z,26.77
2023-09-12T05:50:48.634Z,12.90
2023-09-12T05:53:15.908Z,12.32
2023-09-12T05:55:43.139Z,10.60
2023-09-12T05:58:10.381Z,18.80
2023-09-12T06:00:37.593Z,14.45
2023-09-12T06:03:05.108Z,18.67
2023-09-12T06:05:32.905Z,20.55
2023-09-12T06:08:00.822Z,14.02
2023-09-12T06:10:28.122Z,17.42
2023-09-12T06:12:55.320Z,21.40
2023-09-12T06:15:22.588Z,20.02
2023-09-12T06:17:49.845Z,13.93
2023-09-12T06:20:17.046Z,15.20
2023-09-12T06:22:44.747Z,14.65
2023-09-12T06:25:11.988Z,14.20
2023-09-12T06:27:39.208Z,24.73
2023-09-12T06:30:07.116Z,13.73
2023-09-12T06:32:34.365Z,19.20
2023-09-12T06:35:01.659Z,22.42
2023-09-12T06:37:28.852Z,21.38
2023-09-12T06:39:56.053Z,15.40
2023-09-12T06:42:23.279Z,17.38
2023-09-12T06:44:50.496Z,17.42
2023-09-12T06:47:17.668Z,17.95
2023-09-12T06:49:47.358Z,18.10
2023-09-12T06:52:17.336Z,16.45
2023-09-12T06:54:44.725Z,15.27
2023-09-12T06:57:12.249Z,26.33
2023-09-12T06:59:40.113Z,26.33
2023-09-12T07:02:08.522Z,23.15
2023-09-12T07:04:35.770Z,16.88
2023-09-12T07:07:03.649Z,19.88
2023-09-12T07:09:31.504Z,29.42
2023-09-12T07:11:59.073Z,18.55
2023-09-12T07:14:34.693Z,21.52
2023-09-12T07:17:02.068Z,23.00
2023-09-12T07:19:29.532Z,15.90
2023-09-12T07:21:58.049Z,23.25
2023-09-12T07:24:28.906Z,17.55
2023-09-12T07:26:56.407Z,17.00
2023-09-12T07:29:23.867Z,18.25
2023-09-12T07:31:57.851Z,18.90
2023-09-12T07:34:26.541Z,17.80
2023-09-12T07:36:54.949Z,15.63
2023-09-12T07:39:22.262Z,19.42
2023-09-12T07:41:49.512Z,18.73
2023-09-12T07:44:17.639Z,15.77
2023-09-12T07:46:45.550Z,13.90
2023-09-12T07:49:12.791Z,26.17
2023-09-12T07:51:40.025Z,20.13
2023-09-12T07:54:07.316Z,20.50
2023-09-12T07:56:34.565Z,21.98
2023-09-12T07:59:01.744Z,17.30
2023-09-12T08:01:29.054Z,21.35
2023-09-12T08:03:56.446Z,21.48
2023-09-12T08:06:25.274Z,19.42
2023-09-12T08:11:19.721Z,21.00
2023-09-12T08:13:50.765Z,19.13
2023-09-12T08:16:18.213Z,29.25
2023-09-12T08:18:45.466Z,18.23
2023-09-12T08:21:12.916Z,21.63
2023-09-12T08:23:40.239Z,27.17
2023-09-12T08:26:07.451Z,24.45
2023-09-12T08:28:34.643Z,32.95
2023-09-12T08:31:01.799Z,24.05
2023-09-12T08:33:29.071Z,25.30
2023-09-12T08:35:56.348Z,20.95
2023-09-12T08:38:25.179Z,29.98
2023-09-12T08:43:20.135Z,27.88
2023-09-12T08:45:48.520Z,26.10
2023-09-12T08:48:17.187Z,24.92
2023-09-12T08:50:45.236Z,22.20
2023-09-12T08:53:12.465Z,15.00
2023-09-12T08:55:39.861Z,26.00
2023-09-12T08:58:08.180Z,22.85
2023-09-12T09:00:36.914Z,19.33
2023-09-12T09:05:32.576Z,30.27
2023-09-12T09:08:00.730Z,25.07
2023-09-12T09:10:47.070Z,22.63
2023-09-12T09:13:17.867Z,28.05
2023-09-12T09:15:45.180Z,24.73
2023-09-12T09:18:13.916Z,23.13
2023-09-12T09:20:42.259Z,22.25
2023-09-12T09:23:11.001Z,29.13
2023-09-12T09:25:42.477Z,24.52
2023-09-12T09:28:20.550Z,26.83
2023-09-12T09:30:50.118Z,22.88
2023-09-12T09:33:17.487Z,22.52
2023-09-12T09:35:48.255Z,36.80
2023-09-12T09:38:17.665Z,32.47
2023-09-12T09:40:45.432Z,23.80
2023-09-12T09:43:12.796Z,34.78
2023-09-12T09:45:47.302Z,99.97
2023-09-12T09:48:22.223Z,53.60
2023-09-12T09:50:50.122Z,32.72
2023-09-12T09:53:17.565Z,33.88
2023-09-12T09:55:45.048Z,37.20
2023-09-12T09:58:19.956Z,22.08
2023-09-12T10:00:49.523Z,19.58
2023-09-12T10:03:20.865Z,26.75
2023-09-12T10:05:49.587Z,20.85
2023-09-12T10:08:18.351Z,23.50
2023-09-12T10:13:13.173Z,20.05
2023-09-12T10:15:40.777Z,25.25
2023-09-12T10:20:49.400Z,20.98
2023-09-12T10:23:28.958Z,21.15
2023-09-12T10:25:56.832Z,19.98
2023-09-12T10:28:24.310Z,26.48
2023-09-12T10:30:51.595Z,23.08
2023-09-12T10:33:19.368Z,13.65
2023-09-12T10:35:47.435Z,17.35
2023-09-12T10:38:15.461Z,13.45
2023-09-12T10:40:44.579Z,14.63
2023-09-12T10:43:12.731Z,10.23
2023-09-12T10:45:41.994Z,16.00
2023-09-12T10:48:12.179Z,19.55
2023-09-12T10:50:40.818Z,14.55
2023-09-12T10:53:16.538Z,13.93
2023-09-12T10:55:43.988Z,15.93
2023-09-12T10:58:12.258Z,11.27
2023-09-12T11:00:40.838Z,21.33
2023-09-12T11:03:38.606Z,9.88
2023-09-12T11:06:06.888Z,13.83
2023-09-12T11:08:38.447Z,14.88
2023-09-12T11:11:22.206Z,15.05
2023-09-12T11:14:05.116Z,11.88
2023-09-12T11:16:32.780Z,12.18
2023-09-12T11:19:19.713Z,13.90
2023-09-12T11:21:54.236Z,10.35
2023-09-12T11:24:22.376Z,11.00
2023-09-12T11:27:00.769Z,22.75
2023-09-12T11:29:38.683Z,14.43
2023-09-12T11:32:06.917Z,14.77
2023-09-12T11:34:40.017Z,14.27
2023-09-12T11:37:07.274Z,18.23
2023-09-12T11:39:36.793Z,15.80
2023-09-12T11:42:05.200Z,10.23
2023-09-12T11:44:33.245Z,15.93
2023-09-12T11:47:04.317Z,9.03
2023-09-12T11:49:41.704Z,12.50
2023-09-12T11:52:14.601Z,11.45
2023-09-12T11:54:42.750Z,10.30
2023-09-12T11:57:15.728Z,13.63
2023-09-12T11:59:49.992Z,10.82
2023-09-12T12:02:17.606Z,10.77
2023-09-12T12:04:45.061Z,13.05
2023-09-12T12:07:12.928Z,14.50
2023-09-12T12:09:40.578Z,7.97
2023-09-12T12:12:11.989Z,8.30
2023-09-12T12:14:41.058Z,12.65
2023-09-12T12:17:12.403Z,13.55
2023-09-12T12:19:40.349Z,8.02
2023-09-12T12:22:09.094Z,9.80
2023-09-12T12:24:41.863Z,18.42
2023-09-12T12:27:09.539Z,12.85
2023-09-12T12:29:37.610Z,12.65
2023-09-12T12:32:06.464Z,15.20
2023-09-12T12:35:28.008Z,12.15
2023-09-12T12:37:21.415Z,9.32
2023-09-12T12:39:49.003Z,9.20
2023-09-12T12:42:16.276Z,19.35
2023-09-12T12:44:43.488Z,15.55
2023-09-12T12:47:12.979Z,10.60
2023-09-12T12:49:41.117Z,14.13
2023-09-12T12:52:12.188Z,19.92
2023-09-12T12:54:40.213Z,12.40
2023-09-12T12:57:07.461Z,8.33
2023-09-12T12:59:37.412Z,8.00
2023-09-12T13:02:04.774Z,21.15
2023-09-12T13:04:39.227Z,12.00
2023-09-12T13:07:06.980Z,16.27
2023-09-12T13:09:34.915Z,14.68
2023-09-12T13:12:02.271Z,13.02
2023-09-12T13:14:32.273Z,11.63
2023-09-12T13:17:00.310Z,16.65
2023-09-12T13:19:28.052Z,15.27
2023-09-12T13:21:55.352Z,12.90
2023-09-12T13:24:22.595Z,17.52
2023-09-12T13:26:50.101Z,12.18
2023-09-12T13:29:17.448Z,16.73
2023-09-12T13:31:44.918Z,14.45
2023-09-12T13:34:12.332Z,12.38
2023-09-12T13:36:39.685Z,12.25
2023-09-12T13:39:09.458Z,8.88
2023-09-12T13:41:37.404Z,10.85
2023-09-12T13:44:05.003Z,15.52
2023-09-12T13:46:32.355Z,11.85
2023-09-12T13:49:01.761Z,14.05
2023-09-12T13:51:29.381Z,10.52
2023-09-12T13:53:56.602Z,12.88
2023-09-12T13:56:24.685Z,10.05
2023-09-12T13:58:52.068Z,10.90
2023-09-12T14:01:32.071Z,12.57
2023-09-12T14:04:03.456Z,15.85
2023-09-12T14:06:31.626Z,14.15
2023-09-12T14:08:59.481Z,10.10
2023-09-12T14:11:33.049Z,20.00
2023-09-12T14:16:34.681Z,15.23
2023-09-12T14:19:02.262Z,12.63
2023-09-12T14:21:31.192Z,18.70
2023-09-12T14:23:59.244Z,11.27
2023-09-12T14:26:26.770Z,14.80
2023-09-12T14:28:55.068Z,13.48
2023-09-12T14:31:24.137Z,7.90
2023-09-12T14:33:53.614Z,12.15
2023-09-12T14:36:20.994Z,9.35
2023-09-12T14:38:48.229Z,6.65
2023-09-12T14:41:15.662Z,10.77
2023-09-12T14:43:43.069Z,6.82
2023-09-12T14:46:11.197Z,7.47
2023-09-12T14:48:40.863Z,10.03
2023-09-12T14:51:09.966Z,8.27
2023-09-12T14:53:37.428Z,9.98
2023-09-12T14:56:04.669Z,10.52
2023-09-12T14:58:31.861Z,4.47
2023-09-12T15:00:59.959Z,12.88
2023-09-12T15:03:27.723Z,16.27
2023-09-12T15:05:54.960Z,15.40
2023-09-12T15:08:22.144Z,11.90
2023-09-12T15:10:49.511Z,8.50
2023-09-12T15:13:16.839Z,5.32
2023-09-12T15:15:44.145Z,11.63
2023-09-12T15:18:11.470Z,7.03
2023-09-12T15:20:38.690Z,5.78
2023-09-12T15:23:06.551Z,4.88
2023-09-12T15:25:33.746Z,8.57
2023-09-12T15:28:00.972Z,10.95
2023-09-12T15:30:28.331Z,6.10
2023-09-12T15:32:55.548Z,5.70
2023-09-12T15:35:22.906Z,3.80
2023-09-12T15:37:52.225Z,4.95
2023-09-12T15:40:19.389Z,7.30
2023-09-12T15:42:47.787Z,4.80
2023-09-12T15:45:17.052Z,4.43
2023-09-12T15:47:46.659Z,4.72
2023-09-12T15:50:15.171Z,3.38
2023-09-12T15:52:43.831Z,3.15
2023-09-12T15:55:12.225Z,4.85
2023-09-12T15:57:39.956Z,4.57
2023-09-12T16:00:11.041Z,8.45
2023-09-12T16:02:42.182Z,5.47
2023-09-12T16:05:10.055Z,3.28
2023-09-12T16:07:37.775Z,8.23
2023-09-12T16:10:05.326Z,4.30
2023-09-12T16:12:32.619Z,2.53
2023-09-12T16:14:59.923Z,5.55
2023-09-12T16:17:27.150Z,3.45
2023-09-12T16:19:55.416Z,4.18
2023-09-12T16:22:22.647Z,2.70
2023-09-12T16:24:49.887Z,6.15
2023-09-12T16:27:18.332Z,4.45
2023-09-12T16:29:45.574Z,9.00
2023-09-12T16:32:12.774Z,6.88
2023-09-12T16:34:40.186Z,4.75
2023-09-12T16:37:07.503Z,5.80
2023-09-12T16:39:36.818Z,3.80
2023-09-12T16:42:04.120Z,9.15
2023-09-12T16:44:31.320Z,5.20
2023-09-12T16:46:58.545Z,2.45
2023-09-12T16:49:26.058Z,4.65
2023-09-12T16:51:53.318Z,2.40
2023-09-12T16:54:20.559Z,3.92
2023-09-12T16:56:47.774Z,6.68
2023-09-12T16:59:15.003Z,5.75
2023-09-12T17:01:42.232Z,5.70
2023-09-12T17:04:11.082Z,3.58
2023-09-12T17:06:38.476Z,4.68
2023-09-12T17:09:05.998Z,3.75
2023-09-12T17:11:33.198Z,3.03
2023-09-12T17:14:00.456Z,4.72
2023-09-12T17:16:27.706Z,9.57
2023-09-12T17:18:55.093Z,2.70
2023-09-12T17:21:22.370Z,3.72
2023-09-12T17:23:49.555Z,4.72
2023-09-12T17:26:17.885Z,3.03
2023-09-12T17:28:45.104Z,4.13
2023-09-12T17:31:13.275Z,5.03
2023-09-12T17:33:40.506Z,2.55
2023-09-12T17:36:07.874Z,7.78
2023-09-12T17:38:35.106Z,6.40
2023-09-12T17:41:02.592Z,5.35
2023-09-12T17:43:31.018Z,9.20
2023-09-12T17:46:10.171Z,6.93
2023-09-12T17:48:41.270Z,5.57
2023-09-12T17:51:08.787Z,3.85
2023-09-12T17:53:35.955Z,3.15
2023-09-12T17:56:03.146Z,4.35
2023-09-12T17:58:30.328Z,3.60
2023-09-12T18:01:02.488Z,2.83
2023-09-12T18:03:32.452Z,6.15
2023-09-12T18:06:00.328Z,3.55
2023-09-12T18:08:27.558Z,3.78
2023-09-12T18:10:54.750Z,7.05
2023-09-12T18:13:21.996Z,8.23
2023-09-12T18:15:49.285Z,4.28
2023-09-12T18:18:16.581Z,4.90
2023-09-12T18:20:43.782Z,2.88
2023-09-12T18:23:10.995Z,7.75
2023-09-12T18:25:38.181Z,7.63
2023-09-12T18:28:06.371Z,3.42
2023-09-12T18:30:33.685Z,3.40
2023-09-12T18:33:00.972Z,4.30
2023-09-12T18:35:28.226Z,6.03
2023-09-12T18:37:55.663Z,9.50
2023-09-12T18:40:23.396Z,6.07
2023-09-12T18:42:50.620Z,5.03
2023-09-12T18:45:17.852Z,5.82
2023-09-12T18:47:45.181Z,9.13
2023-09-12T18:50:12.424Z,4.07
2023-09-12T18:52:53.775Z,5.07
2023-09-12T18:55:23.916Z,5.30
2023-09-12T18:57:51.253Z,5.85
2023-09-12T19:00:18.760Z,9.20
2023-09-12T19:02:46.870Z,5.30
2023-09-12T19:05:14.379Z,4.63
2023-09-12T19:07:41.700Z,7.18
2023-09-12T19:10:11.485Z,4.32
2023-09-12T19:12:38.843Z,8.35
2023-09-12T19:15:06.612Z,8.43
2023-09-12T19:17:34.003Z,7.80
2023-09-12T19:20:01.298Z,5.13
2023-09-12T19:22:28.537Z,7.10
2023-09-12T19:24:55.742Z,5.75
2023-09-12T19:27:23.330Z,6.63
2023-09-12T19:29:52.758Z,7.43
2023-09-12T19:32:19.938Z,4.88
2023-09-12T19:34:47.115Z,4.88
2023-09-12T19:37:14.337Z,6.15
2023-09-12T19:39:41.597Z,6.78
2023-09-12T19:42:10.117Z,4.35
2023-09-12T19:44:37.332Z,3.22
2023-09-12T19:47:05.293Z,3.70
2023-09-12T19:49:32.806Z,5.43
2023-09-12T19:52:00.075Z,5.32
2023-09-12T19:54:27.277Z,5.28
2023-09-12T19:56:54.452Z,3.58
2023-09-12T19:59:21.705Z,4.50
2023-09-12T20:01:49.943Z,8.82
2023-09-12T20:04:17.580Z,7.43
2023-09-12T20:06:44.941Z,4.18
2023-09-12T20:09:12.610Z,7.05
2023-09-12T20:11:41.146Z,5.38
2023-09-12T20:14:11.501Z,5.78
2023-09-12T20:16:39.530Z,6.13
2023-09-12T20:19:09.023Z,5.07
2023-09-12T20:21:36.661Z,7.07
2023-09-12T20:24:08.150Z,7.30
2023-09-12T20:26:35.808Z,5.25
2023-09-12T20:29:03.084Z,6.15
2023-09-12T20:31:30.357Z,5.05
2023-09-12T20:33:58.025Z,6.15
2023-09-12T20:36:30.449Z,5.80
2023-09-12T20:39:26.570Z,5.68
2023-09-12T20:41:54.751Z,9.38
2023-09-12T20:44:22.143Z,6.25
2023-09-12T20:46:49.523Z,6.78
2023-09-12T20:49:16.868Z,3.80
2023-09-12T20:51:49.254Z,6.03
2023-09-12T20:54:17.562Z,8.25
2023-09-12T20:56:45.574Z,5.53
2023-09-12T20:59:12.876Z,3.57
2023-09-12T21:01:40.200Z,8.68
2023-09-12T21:04:07.580Z,4.07
2023-09-12T21:06:35.206Z,7.70
2023-09-12T21:09:02.511Z,5.93
2023-09-12T21:11:29.738Z,7.28
2023-09-12T21:13:56.926Z,5.85
2023-09-12T21:16:24.290Z,6.10
2023-09-12T21:18:51.646Z,8.07
2023-09-12T21:21:18.843Z,4.65
2023-09-12T21:23:46.473Z,5.07
2023-09-12T21:26:13.925Z,5.43
2023-09-12T21:28:41.134Z,12.02
2023-09-12T21:31:08.395Z,6.97
2023-09-12T21:33:35.814Z,5.30
2023-09-12T21:36:03.956Z,12.52
2023-09-12T21:38:31.167Z,7.67
2023-09-12T21:40:59.426Z,10.02
2023-09-12T21:43:27.075Z,7.70
2023-09-12T21:45:54.390Z,4.90
2023-09-12T21:48:21.676Z,7.68
2023-09-12T21:50:48.897Z,8.45
2023-09-12T21:53:16.075Z,5.63
2023-09-12T21:55:43.281Z,5.82
2023-09-12T21:58:10.472Z,6.40
2023-09-12T22:00:37.833Z,8.30
2023-09-12T22:03:05.497Z,6.53
2023-09-12T22:05:33.583Z,8.80
2023-09-12T22:08:00.761Z,4.07
2023-09-12T22:10:28.001Z,5.50
2023-09-12T22:12:56.249Z,6.40
2023-09-12T22:15:23.432Z,3.88
2023-09-12T22:17:50.663Z,6.70
2023-09-12T22:20:17.953Z,5.25
2023-09-12T22:22:46.428Z,8.05
2023-09-12T22:25:14.204Z,7.35
2023-09-12T22:27:42.567Z,6.60
2023-09-12T22:30:10.332Z,4.18
2023-09-12T22:32:40.473Z,4.75
2023-09-12T22:35:07.986Z,3.95
2023-09-12T22:37:35.352Z,5.88
2023-09-12T22:40:02.666Z,10.85
2023-09-12T22:42:29.932Z,4.25
2023-09-12T22:44:57.194Z,3.80
2023-09-12T22:47:24.995Z,7.32
2023-09-12T22:49:52.692Z,4.50
2023-09-12T22:52:20.032Z,5.35
2023-09-12T22:54:47.393Z,4.50
2023-09-12T22:57:14.636Z,5.80
2023-09-12T22:59:41.824Z,6.43
2023-09-12T23:02:09.823Z,4.38
2023-09-12T23:04:37.161Z,5.63
2023-09-12T23:07:04.593Z,3.58
2023-09-12T23:09:31.960Z,4.53
2023-09-12T23:11:59.305Z,5.03
2023-09-12T23:14:29.564Z,3.78
2023-09-12T23:16:56.780Z,3.08
2023-09-12T23:23:12.531Z,4.20
2023-09-12T23:25:40.009Z,4.45
2023-09-12T23:28:07.780Z,3.78
2023-09-12T23:30:35.165Z,7.22
2023-09-12T23:33:02.409Z,6.38
2023-09-12T23:35:29.645Z,3.92
2023-09-12T23:37:56.872Z,3.80
2023-09-12T23:40:24.082Z,4.15
2023-09-12T23:42:51.408Z,4.65
2023-09-12T23:45:18.736Z,3.35
2023-09-12T23:47:45.956Z,3.90
2023-09-12T23:50:13.456Z,3.33
2023-09-12T23:52:40.808Z,7.45
2023-09-12T23:55:08.294Z,3.85
2023-09-12T23:57:35.573Z,4.13
